createdAt,value
2023-12-13T00:04:44.650Z,6.80
2023-12-13T00:09:48.172Z,6.80
2023-12-13T00:14:53.044Z,6.80
2023-12-13T00:19:58.190Z,6.70
2023-12-13T00:25:02.024Z,6.80
2023-12-13T00:30:08.198Z,6.70
2023-12-13T00:35:13.258Z,6.70
2023-12-13T00:40:17.160Z,6.60
2023-12-13T00:45:21.339Z,6.60
2023-12-13T00:50:26.347Z,6.50
2023-12-13T00:55:30.514Z,6.40
2023-12-13T01:00:34.131Z,6.30
2023-12-13T01:05:39.598Z,6.20
2023-12-13T01:10:43.434Z,6.20
2023-12-13T01:15:47.310Z,6.10
2023-12-13T01:20:52.271Z,6.20
2023-12-13T01:25:55.976Z,6.20
2023-12-13T01:31:00.461Z,6.10
2023-12-13T01:36:07.312Z,6.10
2023-12-13T01:41:14.304Z,6.00
2023-12-13T01:46:19.407Z,5.90
2023-12-13T01:51:25.099Z,5.70
2023-12-13T01:56:28.899Z,5.60
2023-12-13T02:01:32.879Z,5.60
2023-12-13T02:06:38.092Z,5.50
2023-12-13T02:11:41.911Z,5.30
2023-12-13T02:16:45.475Z,5.10
2023-12-13T02:21:51.557Z,5.00
2023-12-13T02:26:57.027Z,5.00
2023-12-13T02:32:00.758Z,5.00
2023-12-13T02:37:05.132Z,5.40
2023-12-13T02:42:10.270Z,5.40
2023-12-13T02:47:14.159Z,5.50
2023-12-13T02:52:20.412Z,5.50
2023-12-13T02:57:25.450Z,5.50
2023-12-13T03:02:29.055Z,5.60
2023-12-13T03:07:33.285Z,5.90
2023-12-13T03:12:38.501Z,6.10
2023-12-13T03:17:42.280Z,6.20
2023-12-13T03:22:45.921Z,6.40
2023-12-13T03:27:50.966Z,6.40
2023-12-13T03:32:55.789Z,6.30
2023-12-13T03:38:00.498Z,6.10
2023-12-13T03:43:06.006Z,5.90
2023-12-13T03:48:09.856Z,5.90
2023-12-13T03:53:17.868Z,5.90
2023-12-13T03:58:22.909Z,5.90
2023-12-13T04:03:26.576Z,5.90
2023-12-13T04:08:30.273Z,6.10
2023-12-13T04:13:35.407Z,6.30
2023-12-13T04:18:40.036Z,6.30
2023-12-13T04:23:44.693Z,6.30
2023-12-13T04:28:49.815Z,6.40
2023-12-13T04:33:53.465Z,6.40
2023-12-13T04:38:57.658Z,6.50
2023-12-13T04:44:02.880Z,6.50
2023-12-13T04:49:07.412Z,6.50
2023-12-13T04:54:10.997Z,6.50
2023-12-13T04:59:16.705Z,6.50
2023-12-13T05:04:20.533Z,6.60
2023-12-13T05:09:24.220Z,6.60
2023-12-13T05:14:29.030Z,6.50
2023-12-13T05:19:32.584Z,6.40
2023-12-13T05:24:36.237Z,6.50
2023-12-13T05:29:45.244Z,6.50
2023-12-13T05:34:49.011Z,6.40
2023-12-13T05:39:53.600Z,6.30
2023-12-13T05:44:58.692Z,6.30
2023-12-13T05:50:02.304Z,6.40
2023-12-13T05:55:06.664Z,6.40
2023-12-13T06:00:14.292Z,6.50
2023-12-13T06:05:19.193Z,6.40
2023-12-13T06:10:23.420Z,6.40
2023-12-13T06:15:53.935Z,6.40
2023-12-13T06:20:57.921Z,6.40
2023-12-13T06:26:02.815Z,6.50
2023-12-13T06:31:08.343Z,6.60
2023-12-13T06:36:12.197Z,6.80
2023-12-13T06:41:15.883Z,6.90
2023-12-13T06:46:20.985Z,6.90
2023-12-13T06:51:24.890Z,6.90
2023-12-13T06:56:29.444Z,6.90
2023-12-13T07:01:34.741Z,6.90
2023-12-13T07:06:38.888Z,6.70
2023-12-13T07:11:42.709Z,6.50
2023-12-13T07:16:49.042Z,6.40
2023-12-13T07:21:54.854Z,6.50
2023-12-13T07:26:58.389Z,6.40
2023-12-13T07:32:05.703Z,6.40
2023-12-13T07:37:09.591Z,6.40
2023-12-13T07:42:33.316Z,6.40
2023-12-13T07:47:39.411Z,6.40
2023-12-13T07:52:43.158Z,6.40
2023-12-13T07:57:46.903Z,6.40
2023-12-13T08:02:52.602Z,6.50
2023-12-13T08:07:56.469Z,6.40
2023-12-13T08:12:59.993Z,6.40
2023-12-13T08:18:05.141Z,6.40
2023-12-13T08:23:14.601Z,6.40
2023-12-13T08:28:18.121Z,6.30
2023-12-13T08:33:23.278Z,6.30
2023-12-13T08:38:28.142Z,6.30
2023-12-13T08:43:31.849Z,6.40
2023-12-13T08:48:37.153Z,6.60
2023-12-13T08:53:41.148Z,6.70
2023-12-13T08:58:45.459Z,6.80
2023-12-13T09:03:50.486Z,6.90
2023-12-13T09:08:56.222Z,7.00
2023-12-13T09:13:59.928Z,7.00
2023-12-13T09:19:06.096Z,7.00
2023-12-13T09:24:10.179Z,7.00
2023-12-13T09:29:15.931Z,7.10
2023-12-13T09:34:22.807Z,7.10
2023-12-13T09:39:27.324Z,7.20
2023-12-13T09:44:32.216Z,7.40
2023-12-13T09:49:39.399Z,7.70
2023-12-13T09:54:46.288Z,7.90
2023-12-13T09:59:50.308Z,7.90
2023-12-13T10:04:55.607Z,7.80
2023-12-13T10:09:59.267Z,7.60
2023-12-13T10:15:10.871Z,7.40
2023-12-13T10:20:16.262Z,7.30
2023-12-13T10:25:21.890Z,7.60
2023-12-13T10:30:25.844Z,8.10
2023-12-13T10:35:31.003Z,8.50
2023-12-13T10:40:34.751Z,8.50
2023-12-13T10:45:41.464Z,8.70
2023-12-13T10:50:48.878Z,8.60
2023-12-13T10:55:55.146Z,8.70
2023-12-13T11:01:00.696Z,8.50
2023-12-13T11:06:07.645Z,8.20
2023-12-13T11:11:14.685Z,8.20
2023-12-13T11:16:20.618Z,8.40
2023-12-13T11:21:31.480Z,8.80
2023-12-13T11:26:35.901Z,8.70
2023-12-13T11:31:49.846Z,8.70
2023-12-13T11:36:58.823Z,8.60
2023-12-13T11:42:07.913Z,8.40
2023-12-13T11:47:13.198Z,8.60
2023-12-13T11:52:20.434Z,8.50
2023-12-13T11:57:24.581Z,8.60
2023-12-13T12:02:29.195Z,8.70
2023-12-13T12:07:40.472Z,9.00
2023-12-13T12:12:44.356Z,9.20
2023-12-13T12:17:49.318Z,9.20
2023-12-13T12:22:55.267Z,9.20
2023-12-13T12:28:09.657Z,9.20
2023-12-13T12:33:15.021Z,9.20
2023-12-13T12:38:20.296Z,9.10
2023-12-13T12:43:24.962Z,9.10
2023-12-13T12:48:31.261Z,9.00
2023-12-13T12:53:36.498Z,8.80
2023-12-13T12:58:40.704Z,8.70
2023-12-13T13:03:45.825Z,8.60
2023-12-13T13:08:56.883Z,8.40
2023-12-13T13:14:00.695Z,8.40
2023-12-13T13:19:06.151Z,8.40
2023-12-13T13:24:11.355Z,8.50
2023-12-13T13:29:14.944Z,8.50
2023-12-13T13:34:20.693Z,8.30
2023-12-13T13:39:28.946Z,8.20
2023-12-13T13:44:33.188Z,8.10
2023-12-13T13:49:37.198Z,8.10
2023-12-13T13:54:42.360Z,8.20
2023-12-13T13:59:45.860Z,8.30
2023-12-13T14:04:49.935Z,8.40
2023-12-13T14:09:55.016Z,8.50
2023-12-13T14:14:58.607Z,8.50
2023-12-13T14:20:02.197Z,8.50
2023-12-13T14:25:08.635Z,8.30
2023-12-13T14:30:13.266Z,8.10
2023-12-13T14:35:17.098Z,7.90
2023-12-13T14:40:23.077Z,7.90
2023-12-13T14:45:28.923Z,7.70
2023-12-13T14:50:32.735Z,7.40
2023-12-13T14:55:38.071Z,7.10
2023-12-13T15:00:41.775Z,6.80
2023-12-13T15:05:45.977Z,6.80
2023-12-13T15:10:52.126Z,6.70
2023-12-13T15:15:55.961Z,6.60
2023-12-13T15:21:00.459Z,6.60
2023-12-13T15:26:06.656Z,6.50
2023-12-13T15:31:11.676Z,6.40
2023-12-13T15:36:16.932Z,6.40
2023-12-13T15:41:22.271Z,6.30
2023-12-13T15:46:27.001Z,6.20
2023-12-13T15:51:31.901Z,6.10
2023-12-13T15:56:36.898Z,6.10
2023-12-13T16:01:40.587Z,6.10
2023-12-13T16:06:45.908Z,6.20
2023-12-13T16:11:52.506Z,6.20
2023-12-13T16:16:56.226Z,6.20
2023-12-13T16:21:59.951Z,6.20
2023-12-13T16:27:05.453Z,6.20
2023-12-13T16:32:09.200Z,6.20
2023-12-13T16:37:12.986Z,6.10
2023-12-13T16:42:20.734Z,6.10
2023-12-13T16:47:25.645Z,6.10
2023-12-13T16:52:29.427Z,6.00
2023-12-13T16:57:34.704Z,6.00
2023-12-13T17:02:44.073Z,5.90
2023-12-13T17:07:50.449Z,5.90
2023-12-13T17:12:55.488Z,5.90
2023-12-13T17:18:00.048Z,5.90
2023-12-13T17:23:04.684Z,5.90
2023-12-13T17:28:09.818Z,5.90
2023-12-13T17:33:13.481Z,5.80
2023-12-13T17:38:17.112Z,5.90
2023-12-13T17:43:22.232Z,5.90
2023-12-13T17:48:26.393Z,5.90
2023-12-13T17:53:36.941Z,5.90
2023-12-13T17:58:41.983Z,5.90
2023-12-13T18:03:46.816Z,5.90
2023-12-13T18:08:50.640Z,5.90
2023-12-13T18:13:56.011Z,5.90
2023-12-13T18:19:02.398Z,5.80
2023-12-13T18:24:06.337Z,5.80
2023-12-13T18:29:12.304Z,5.80
2023-12-13T18:34:15.799Z,5.70
2023-12-13T18:39:19.565Z,5.80
2023-12-13T18:44:24.796Z,5.80
2023-12-13T18:49:30.950Z,5.70
2023-12-13T18:54:34.687Z,5.70
2023-12-13T18:59:39.737Z,5.80
2023-12-13T19:04:43.818Z,5.80
2023-12-13T19:09:48.325Z,5.80
2023-12-13T19:14:55.220Z,5.80
2023-12-13T19:19:58.890Z,5.90
2023-12-13T19:25:02.502Z,5.90
2023-12-13T19:30:09.866Z,5.80
2023-12-13T19:35:14.046Z,5.80
2023-12-13T19:40:17.855Z,5.70
2023-12-13T19:45:23.296Z,5.70
2023-12-13T19:50:27.027Z,5.60
2023-12-13T19:55:30.739Z,5.50
2023-12-13T20:00:37.765Z,5.40
2023-12-13T20:05:43.290Z,5.30
2023-12-13T20:10:47.088Z,5.20
2023-12-13T20:15:52.228Z,5.20
2023-12-13T20:20:59.565Z,5.10
2023-12-13T20:26:03.926Z,4.90
2023-12-13T20:31:09.283Z,4.90
2023-12-13T20:36:14.022Z,4.70
2023-12-13T20:41:18.755Z,4.60
2023-12-13T20:46:25.427Z,4.60
2023-12-13T20:51:29.281Z,4.50
2023-12-13T20:56:33.085Z,4.50
2023-12-13T21:01:38.504Z,4.50
2023-12-13T21:06:42.199Z,4.50
2023-12-13T21:11:45.762Z,4.50
2023-12-13T21:16:50.955Z,4.50
2023-12-13T21:21:54.410Z,4.50
2023-12-13T21:26:58.257Z,4.40
2023-12-13T21:32:03.757Z,4.40
2023-12-13T21:37:08.469Z,4.50
2023-12-13T21:42:14.273Z,4.50
2023-12-13T21:47:20.716Z,4.40
2023-12-13T21:52:24.478Z,4.50
2023-12-13T21:57:28.329Z,4.40
2023-12-13T22:02:33.494Z,4.40
2023-12-13T22:07:39.686Z,4.40
2023-12-13T22:12:45.940Z,4.40
2023-12-13T22:17:55.105Z,4.40
2023-12-13T22:22:58.949Z,4.40
2023-12-13T22:28:03.472Z,4.40
2023-12-13T22:33:08.615Z,4.30
2023-12-13T22:38:13.379Z,4.40
2023-12-13T22:43:16.949Z,4.50
2023-12-13T22:48:22.900Z,4.40
2023-12-13T22:53:27.093Z,4.50
2023-12-13T22:58:30.828Z,4.50
2023-12-13T23:03:35.953Z,4.50
2023-12-13T23:08:39.669Z,4.50
2023-12-13T23:13:43.357Z,4.50
2023-12-13T23:18:48.451Z,4.50
2023-12-13T23:23:52.166Z,4.60
2023-12-13T23:28:55.844Z,4.60
2023-12-13T23:34:01.087Z,4.60
2023-12-13T23:39:05.551Z,4.60
2023-12-13T23:44:09.255Z,4.60
2023-12-13T23:49:14.493Z,4.60
2023-12-13T23:54:18.278Z,4.70
2023-12-13T23:59:22.970Z,4.80
